Terminal Aerodrome Forecast
Issued by NWS

Home | Current Version | Previous Version | Text Only | Print | Product List | Glossary Off
Versions: 1 2 3 4 5 6 7 8 9 10 11 12 13 14 15 16 17 18 19 20

000
FTUS41 KCLE 252300
TAFFDY
TAF
KFDY 252325Z 2600/2624 05014G24KT 3/4SM -SN BR SCT008 OVC012
      TEMPO 2600/2604 1 1/2SM -SN OVC008
     FM260400 04014KT 2SM -SN SCT012 OVC020
      TEMPO 2604/2606 1SM -SN OVC012
     FM260600 02011KT P6SM -SN OVC025
     FM261500 36010KT P6SM BKN035
     FM262000 35010KT P6SM SCT045 BKN250=

USA.gov is the U.S. government's official web portal to all federal, state and local government web resources and services.